Terminal Aerodrome Forecast
Issued by NWS

Home | Current Version | Previous Version | Text Only | Print | Product List | Glossary On
Versions: 1 2 3 4 5 6 7 8 9 10 11 12 13 14 15 16
568
FTUS42 KFFC 060538
TAFFTY
TAF
KFTY 060538Z 0606/0706 33005KT P6SM FEW250
     FM061000 06003KT P6SM FEW250
     FM061800 03005KT P6SM BKN250
     FM062100 35006KT P6SM SCT060 BKN150=

USA.gov is the U.S. government's official web portal to all federal, state and local government web resources and services.